Time;durP1;ratioP1;P1;durP2;ratioP2;P2;SDS_P1;SDS_P2;PMS_P1;PMS_P2;Temp;Humidity;BMP_temperature;BMP_pressure;BME280_temperature;BME280_humidity;BME280_pressure;Samples;Min_cycle;Max_cycle;Signal;HPM_P1;HPM_P2
2022/12/12 00:00:58;;;;;;;5.32;2.03;;;24.50;50.90;;;;;;5022640;28;20230;-42
2022/12/12 00:03:29;;;;;;;3.75;2.05;;;24.50;50.80;;;;;;5013169;28;20193;-41
2022/12/12 00:06:02;;;;;;;3.92;1.80;;;24.60;50.80;;;;;;5013825;28;20220;-45
2022/12/12 00:08:32;;;;;;;5.80;2.15;;;24.60;50.80;;;;;;4996892;28;20680;-46
2022/12/12 00:11:03;;;;;;;4.57;1.80;;;24.60;50.80;;;;;;4994294;28;20233;-43
2022/12/12 00:13:36;;;;;;;3.53;2.00;;;24.60;50.70;;;;;;5011726;28;20267;-44
2022/12/12 00:16:08;;;;;;;4.10;1.90;;;24.60;50.80;;;;;;5017575;28;20216;-45
2022/12/12 00:18:40;;;;;;;3.55;1.83;;;24.60;50.80;;;;;;5014820;28;20201;-44
2022/12/12 00:21:15;;;;;;;5.00;1.63;;;24.70;50.80;;;;;;5012906;28;20197;-43
2022/12/12 00:23:45;;;;;;;4.13;1.85;;;24.70;50.80;;;;;;5012938;28;20200;-42
2022/12/12 00:26:20;;;;;;;3.28;1.70;;;24.70;50.70;;;;;;5010751;28;20221;-42
2022/12/12 00:28:53;;;;;;;3.30;1.70;;;24.70;50.70;;;;;;5013307;28;20196;-43
2022/12/12 00:31:24;;;;;;;4.82;1.83;;;24.70;50.60;;;;;;5013349;28;20734;-44
2022/12/12 00:33:55;;;;;;;3.20;1.75;;;24.80;50.60;;;;;;4993985;28;20657;-43
2022/12/12 00:36:28;;;;;;;3.65;1.70;;;24.80;50.50;;;;;;4993066;28;20217;-42
2022/12/12 00:38:59;;;;;;;2.83;1.80;;;24.80;50.40;;;;;;4993995;28;20205;-42
2022/12/12 00:41:30;;;;;;;3.00;1.80;;;24.80;50.30;;;;;;4993103;28;20576;-42
2022/12/12 00:44:03;;;;;;;3.20;1.90;;;24.80;50.30;;;;;;4993871;28;20197;-43
2022/12/12 00:46:33;;;;;;;3.42;1.65;;;24.80;50.20;;;;;;4993478;28;20225;-41
2022/12/12 00:49:05;;;;;;;3.33;1.80;;;24.90;50.20;;;;;;5012990;28;20197;-42
2022/12/12 00:51:36;;;;;;;2.72;1.60;;;24.90;50.20;;;;;;5012477;28;20232;-42
2022/12/12 00:54:06;;;;;;;3.88;2.05;;;24.90;50.20;;;;;;5011467;28;20671;-42
2022/12/12 00:56:37;;;;;;;4.35;2.10;;;24.90;50.20;;;;;;5012156;28;20217;-49
2022/12/12 00:59:10;;;;;;;4.47;2.00;;;24.90;50.20;;;;;;5012533;28;20204;-42
2022/12/12 01:01:41;;;;;;;3.50;1.80;;;24.90;50.20;;;;;;5015818;28;20197;-44
2022/12/12 01:04:12;;;;;;;3.42;1.60;;;24.90;50.20;;;;;;5012626;28;20197;-42
2022/12/12 01:06:43;;;;;;;4.15;1.65;;;25.00;50.20;;;;;;5012813;28;20239;-43
2022/12/12 01:09:13;;;;;;;3.13;1.70;;;24.90;50.10;;;;;;5013016;28;20211;-45
2022/12/12 01:11:44;;;;;;;4.78;2.00;;;25.00;50.10;;;;;;5028203;28;20239;-42
2022/12/12 01:14:17;;;;;;;4.00;2.00;;;25.00;50.00;;;;;;5012130;28;20292;-45
2022/12/12 01:16:47;;;;;;;3.30;1.80;;;25.00;50.00;;;;;;5011944;28;20232;-41
2022/12/12 01:19:18;;;;;;;3.72;2.00;;;25.10;50.00;;;;;;5012233;28;20670;-45
2022/12/12 01:21:49;;;;;;;4.28;2.13;;;25.00;50.00;;;;;;5011790;28;20209;-43
2022/12/12 01:24:19;;;;;;;3.50;1.90;;;25.10;50.00;;;;;;5012315;28;20645;-44
2022/12/12 01:26:51;;;;;;;4.15;1.95;;;25.10;50.00;;;;;;5011799;28;20224;-42
2022/12/12 01:29:24;;;;;;;4.65;1.85;;;25.10;49.90;;;;;;5017664;28;20196;-45
2022/12/12 01:31:56;;;;;;;5.60;2.08;;;25.10;50.00;;;;;;5011450;28;20228;-43
2022/12/12 01:34:27;;;;;;;2.72;1.98;;;25.10;49.90;;;;;;5009507;28;20192;-47
2022/12/12 01:36:58;;;;;;;3.83;1.95;;;25.10;49.90;;;;;;5010760;28;20224;-43
2022/12/12 01:39:29;;;;;;;5.63;2.20;;;25.20;50.00;;;;;;5012201;28;20211;-42
2022/12/12 01:41:59;;;;;;;4.60;2.17;;;25.10;49.90;;;;;;5011383;28;20205;-46
2022/12/12 01:44:47;;;;;;;3.15;1.88;;;25.20;49.90;;;;;;5011368;28;20679;-43
2022/12/12 01:47:19;;;;;;;4.07;1.92;;;25.20;49.90;;;;;;5012096;28;20205;-45
2022/12/12 01:49:53;;;;;;;4.20;2.05;;;25.20;49.80;;;;;;5012613;28;20204;-43
2022/12/12 01:52:28;;;;;;;3.65;2.08;;;25.20;49.80;;;;;;5012614;28;20196;-42
2022/12/12 01:55:01;;;;;;;4.57;1.90;;;25.30;49.90;;;;;;5012517;28;20196;-41
2022/12/12 01:57:34;;;;;;;4.25;1.95;;;25.30;49.80;;;;;;5012409;28;20197;-41
2022/12/12 02:00:11;;;;;;;3.13;1.88;;;25.30;49.70;;;;;;5012135;28;20201;-42
2022/12/12 02:02:44;;;;;;;4.25;2.17;;;25.30;49.70;;;;;;5012240;28;20211;-44
2022/12/12 02:05:23;;;;;;;3.45;1.85;;;25.30;49.70;;;;;;5010987;28;20212;-44
2022/12/12 02:07:55;;;;;;;2.38;1.92;;;25.30;49.70;;;;;;5011767;28;20196;-45
2022/12/12 02:10:25;;;;;;;3.85;2.03;;;25.30;49.70;;;;;;5011322;28;20690;-42
2022/12/12 02:13:04;;;;;;;2.97;1.85;;;25.30;49.70;;;;;;5011719;28;20208;-42
2022/12/12 02:15:43;;;;;;;4.80;1.80;;;25.40;49.70;;;;;;5011643;28;20699;-42
2022/12/12 02:18:21;;;;;;;6.20;2.28;;;25.30;49.60;;;;;;5011782;28;20203;-42
2022/12/12 02:21:02;;;;;;;3.05;2.03;;;25.40;49.60;;;;;;5011532;28;20203;-44
2022/12/12 02:24:16;;;;;;;3.30;2.10;;;25.40;49.60;;;;;;5011784;28;20208;-43
2022/12/12 02:27:10;;;;;;;4.72;2.05;;;25.40;49.50;;;;;;5011720;28;20913;-43
2022/12/12 02:30:10;;;;;;;4.30;1.90;;;25.40;49.40;;;;;;5011436;28;20201;-41
2022/12/12 02:33:04;;;;;;;3.63;2.03;;;25.50;49.40;;;;;;5007076;28;20200;-42
2022/12/12 02:35:42;;;;;;;3.50;1.88;;;25.40;49.20;;;;;;5011068;28;20224;-42
2022/12/12 02:38:23;;;;;;;6.60;2.22;;;25.50;49.30;;;;;;5004782;28;20208;-41
2022/12/12 02:41:02;;;;;;;3.22;1.83;;;25.50;49.20;;;;;;4991819;28;20594;-41
2022/12/12 02:43:39;;;;;;;3.78;1.80;;;25.50;49.20;;;;;;5008015;28;20197;-42
2022/12/12 02:46:18;;;;;;;3.40;1.77;;;25.50;49.20;;;;;;5010996;28;20216;-43
2022/12/12 02:48:55;;;;;;;2.88;2.03;;;25.50;49.30;;;;;;5025828;28;20192;-41
2022/12/12 02:51:28;;;;;;;3.53;2.00;;;25.60;49.30;;;;;;5015645;28;20220;-41
2022/12/12 02:54:02;;;;;;;4.15;1.90;;;25.60;49.30;;;;;;4990641;28;20209;-42
2022/12/12 02:56:52;;;;;;;4.13;1.95;;;25.60;49.30;;;;;;4991615;28;20222;-42
2022/12/12 02:59:30;;;;;;;6.85;2.05;;;25.60;49.20;;;;;;5010082;28;20390;-41
2022/12/12 03:02:37;;;;;;;4.57;1.83;;;25.60;49.10;;;;;;5014722;28;20197;-42
2022/12/12 03:08:46;;;;;;;3.90;1.85;;;25.70;49.00;;;;;;5011398;28;20335;-43
2022/12/12 03:11:23;;;;;;;5.38;2.15;;;25.70;48.90;;;;;;5010493;28;20236;-42
2022/12/12 03:13:59;;;;;;;5.00;2.13;;;25.70;48.90;;;;;;5010861;28;20200;-42
2022/12/12 03:16:32;;;;;;;5.10;1.90;;;25.70;48.90;;;;;;5009369;28;20240;-42
2022/12/12 03:19:10;;;;;;;3.90;1.67;;;25.70;48.80;;;;;;4991359;28;20661;-42
2022/12/12 03:21:48;;;;;;;5.18;2.10;;;25.70;48.80;;;;;;4990286;28;20264;-42
2022/12/12 03:24:27;;;;;;;4.28;1.77;;;25.70;48.70;;;;;;5010252;28;20687;-42
2022/12/12 03:27:01;;;;;;;5.30;1.70;;;25.70;48.70;;;;;;5005376;28;20224;-41
2022/12/12 03:29:36;;;;;;;4.85;1.67;;;25.80;48.70;;;;;;5010331;28;20203;-42
2022/12/12 03:32:10;;;;;;;5.80;1.80;;;25.80;48.60;;;;;;4994015;28;20216;-42
2022/12/12 03:34:44;;;;;;;5.00;1.70;;;25.80;48.60;;;;;;5009385;28;20549;-41
2022/12/12 03:37:22;;;;;;;4.13;1.77;;;25.80;48.60;;;;;;5010392;28;20203;-41
2022/12/12 03:39:58;;;;;;;5.95;2.10;;;25.80;48.50;;;;;;5009316;28;20184;-42
2022/12/12 03:42:32;;;;;;;3.85;1.73;;;25.80;48.60;;;;;;5010203;28;20562;-42
2022/12/12 03:45:07;;;;;;;3.50;1.70;;;25.80;48.50;;;;;;5009930;28;20227;-42
2022/12/12 03:47:44;;;;;;;4.30;1.83;;;25.90;48.50;;;;;;5010663;28;20200;-43
2022/12/12 03:50:20;;;;;;;2.92;1.88;;;25.90;48.50;;;;;;5010475;28;20200;-42
2022/12/12 03:52:58;;;;;;;3.35;1.42;;;25.90;48.50;;;;;;5009605;28;20216;-41
2022/12/12 03:55:34;;;;;;;4.18;1.80;;;25.90;48.40;;;;;;5010218;28;20217;-41
2022/12/12 03:58:11;;;;;;;2.33;1.50;;;25.90;48.50;;;;;;5010359;28;20798;-41
2022/12/12 04:00:43;;;;;;;6.70;1.90;;;25.90;48.40;;;;;;5009965;28;20249;-42
2022/12/12 04:03:21;;;;;;;5.30;1.95;;;25.90;48.40;;;;;;5009441;28;20193;-41
2022/12/12 04:14:49;;;;;;;3.63;1.52;;;26.00;48.30;;;;;;5009994;28;20280;-46
2022/12/12 04:17:25;;;;;;;4.40;2.13;;;25.90;48.20;;;;;;5008239;28;20197;-43
2022/12/12 04:23:16;;;;;;;3.85;1.73;;;26.00;48.30;;;;;;4979476;28;20193;-42
2022/12/12 04:28:58;;;;;;;4.60;1.73;;;26.00;48.30;;;;;;5005637;28;20207;-42
2022/12/12 04:31:31;;;;;;;3.15;1.67;;;26.10;48.20;;;;;;5013883;28;20228;-43
2022/12/12 04:34:09;;;;;;;4.32;1.83;;;26.10;48.20;;;;;;5013546;28;20586;-42
2022/12/12 04:36:42;;;;;;;3.67;1.88;;;26.00;48.70;;;;;;5013496;28;20223;-44
2022/12/12 04:39:16;;;;;;;2.72;1.75;;;26.10;48.10;;;;;;5012637;28;20232;-45
2022/12/12 04:41:51;;;;;;;4.97;1.75;;;26.10;48.10;;;;;;5013102;28;20219;-43
2022/12/12 04:44:23;;;;;;;3.67;1.40;;;26.20;48.10;;;;;;5012613;28;20509;-45
2022/12/12 04:46:56;;;;;;;4.55;1.40;;;26.20;48.60;;;;;;5012645;28;20247;-43
2022/12/12 04:49:29;;;;;;;4.43;1.40;;;26.20;48.00;;;;;;5012588;28;20189;-42
2022/12/12 04:52:04;;;;;;;2.35;1.50;;;26.20;47.90;;;;;;5012214;28;20216;-41
2022/12/12 04:54:41;;;;;;;6.80;2.08;;;26.20;47.90;;;;;;5013032;28;20590;-53
2022/12/12 04:57:20;;;;;;;5.72;1.80;;;26.20;47.30;;;;;;5011891;28;20219;-49
2022/12/12 04:59:51;;;;;;;7.85;2.03;;;26.10;46.90;;;;;;5002239;28;20192;-60
2022/12/12 05:02:29;;;;;;;3.78;2.00;;;26.00;47.20;;;;;;5012982;28;20204;-39
2022/12/12 05:05:04;;;;;;;4.85;1.95;;;25.80;47.40;;;;;;5029175;28;20188;-42
2022/12/12 05:07:40;;;;;;;5.53;1.90;;;25.60;47.70;;;;;;5029339;28;20229;-39
2022/12/12 05:10:16;;;;;;;6.07;2.22;;;25.50;47.90;;;;;;5018108;28;20208;-41
2022/12/12 05:12:50;;;;;;;4.10;1.90;;;25.40;48.10;;;;;;5012372;28;20224;-40
2022/12/12 05:15:22;;;;;;;5.38;1.80;;;25.40;48.20;;;;;;5011915;28;20577;-40
2022/12/12 05:17:58;;;;;;;5.72;2.15;;;25.40;48.30;;;;;;5012723;28;20201;-39
2022/12/12 05:20:29;;;;;;;6.90;2.10;;;25.40;48.30;;;;;;5012545;28;20200;-42
2022/12/12 05:23:00;;;;;;;5.07;1.80;;;25.40;48.30;;;;;;5011396;28;20200;-43
2022/12/12 05:25:30;;;;;;;4.35;1.90;;;25.50;48.40;;;;;;5011614;28;20221;-40
2022/12/12 05:28:03;;;;;;;4.05;1.85;;;25.50;48.30;;;;;;5005294;28;20678;-39
2022/12/12 05:30:34;;;;;;;3.83;1.85;;;25.50;48.30;;;;;;5006249;28;20193;-41
2022/12/12 05:33:05;;;;;;;4.22;1.92;;;25.50;48.30;;;;;;5011799;28;20224;-40
2022/12/12 05:35:36;;;;;;;4.88;1.88;;;25.60;48.30;;;;;;5011574;28;20227;-43
2022/12/12 05:38:06;;;;;;;4.55;1.73;;;25.60;48.20;;;;;;5011466;28;20189;-43
2022/12/12 05:40:38;;;;;;;3.20;1.48;;;25.60;48.20;;;;;;5010476;28;20209;-40
2022/12/12 05:43:10;;;;;;;2.70;1.80;;;25.60;48.20;;;;;;5012243;28;20737;-42
2022/12/12 05:45:42;;;;;;;4.85;1.70;;;25.60;48.20;;;;;;5011645;28;20213;-41
2022/12/12 05:48:13;;;;;;;4.65;2.00;;;25.70;48.20;;;;;;5011669;28;20201;-40
2022/12/12 05:50:44;;;;;;;6.25;2.00;;;25.70;48.20;;;;;;5010224;28;20201;-39
2022/12/12 05:53:14;;;;;;;4.57;1.92;;;25.70;48.20;;;;;;5009331;28;20228;-44
2022/12/12 05:55:45;;;;;;;3.92;1.98;;;25.70;48.20;;;;;;5011654;28;20229;-49
2022/12/12 05:58:18;;;;;;;4.43;1.60;;;25.70;48.10;;;;;;5010649;28;20204;-40
2022/12/12 06:00:50;;;;;;;2.63;1.63;;;25.70;48.00;;;;;;5010935;28;20204;-39
2022/12/12 06:03:21;;;;;;;2.90;1.80;;;25.80;48.10;;;;;;5011079;28;20577;-39
2022/12/12 06:05:52;;;;;;;2.25;1.33;;;25.80;48.00;;;;;;5011577;28;20213;-40
2022/12/12 06:08:22;;;;;;;3.17;1.73;;;25.80;48.00;;;;;;5010969;28;20247;-42
2022/12/12 06:10:53;;;;;;;2.50;1.70;;;25.80;47.90;;;;;;5010949;28;20197;-41
2022/12/12 06:13:26;;;;;;;5.25;2.00;;;25.80;47.90;;;;;;5010901;28;20236;-40
2022/12/12 06:15:56;;;;;;;3.22;1.60;;;25.80;47.80;;;;;;5011404;28;20630;-39
2022/12/12 06:18:27;;;;;;;3.92;1.70;;;25.80;47.80;;;;;;5011531;28;20567;-40
2022/12/12 06:21:06;;;;;;;7.43;2.20;;;25.90;47.90;;;;;;5011246;28;20193;-39
2022/12/12 06:23:39;;;;;;;3.10;1.55;;;25.90;47.80;;;;;;5011625;28;20204;-40
2022/12/12 06:26:11;;;;;;;2.70;1.70;;;25.90;47.80;;;;;;5010644;28;20743;-39
2022/12/12 06:28:44;;;;;;;4.28;1.85;;;25.90;47.70;;;;;;5010485;28;20205;-39
2022/12/12 06:31:15;;;;;;;3.38;2.00;;;25.90;47.70;;;;;;5010367;28;20197;-39
2022/12/12 06:33:46;;;;;;;4.00;1.92;;;25.90;47.70;;;;;;5010997;28;20209;-39
2022/12/12 06:36:22;;;;;;;2.42;1.65;;;25.90;47.70;;;;;;5010526;28;20696;-39
2022/12/12 06:38:54;;;;;;;3.20;1.83;;;25.90;47.60;;;;;;5011047;28;20196;-39
2022/12/12 06:41:27;;;;;;;4.43;1.75;;;25.90;47.60;;;;;;5010211;28;20193;-43
2022/12/12 06:43:59;;;;;;;4.05;1.90;;;25.90;47.60;;;;;;5010727;28;20204;-39
2022/12/12 06:46:31;;;;;;;3.45;1.85;;;25.90;47.60;;;;;;5010483;28;20307;-40
2022/12/12 06:49:08;;;;;;;3.28;1.67;;;25.90;47.60;;;;;;5011358;28;20193;-40
2022/12/12 06:51:42;;;;;;;6.15;1.88;;;25.90;47.60;;;;;;5010843;28;20193;-39
2022/12/12 06:54:14;;;;;;;3.45;1.52;;;25.90;47.50;;;;;;5011010;28;20200;-41
2022/12/12 06:56:45;;;;;;;3.10;1.70;;;25.90;47.50;;;;;;5011087;28;20220;-40
2022/12/12 06:59:18;;;;;;;2.83;2.08;;;25.90;47.60;;;;;;5013911;28;20207;-41
2022/12/12 07:01:48;;;;;;;2.92;1.85;;;25.90;47.60;;;;;;5011051;28;20212;-39
2022/12/12 07:04:19;;;;;;;4.22;1.90;;;25.90;47.60;;;;;;5011049;28;20208;-41
2022/12/12 07:06:50;;;;;;;3.42;1.77;;;25.90;47.60;;;;;;5010499;28;20224;-40
2022/12/12 07:09:21;;;;;;;4.00;1.70;;;25.90;47.60;;;;;;5010845;28;20287;-41
2022/12/12 07:11:52;;;;;;;2.95;2.00;;;25.90;47.60;;;;;;5010777;28;20216;-40
2022/12/12 07:14:24;;;;;;;3.00;1.70;;;25.80;47.50;;;;;;5011326;28;20193;-40
2022/12/12 07:16:55;;;;;;;3.42;1.92;;;25.80;47.50;;;;;;5028117;28;20222;-41
2022/12/12 07:19:26;;;;;;;2.65;1.77;;;25.80;47.50;;;;;;5029988;28;20203;-39
2022/12/12 07:21:57;;;;;;;3.13;1.73;;;25.80;47.60;;;;;;5030175;28;20200;-39
2022/12/12 07:24:27;;;;;;;3.67;1.83;;;25.80;47.60;;;;;;5030365;28;20654;-39
2022/12/12 07:26:58;;;;;;;4.13;1.77;;;25.70;47.60;;;;;;5030512;28;20223;-44
2022/12/12 07:29:31;;;;;;;4.40;2.05;;;25.70;47.60;;;;;;5030700;28;20208;-40
2022/12/12 07:32:01;;;;;;;3.00;1.67;;;25.70;47.60;;;;;;4991352;28;20228;-39
2022/12/12 07:34:32;;;;;;;4.07;1.92;;;25.70;47.70;;;;;;4991975;28;20205;-40
2022/12/12 07:37:03;;;;;;;4.57;1.85;;;25.60;47.70;;;;;;4991097;28;20224;-39
2022/12/12 07:39:36;;;;;;;2.55;1.50;;;25.60;47.70;;;;;;4991477;28;20197;-41
2022/12/12 07:42:06;;;;;;;3.10;2.03;;;25.60;47.70;;;;;;4991122;28;20211;-40
2022/12/12 07:44:39;;;;;;;4.30;1.95;;;25.60;47.70;;;;;;4991229;28;20576;-44
2022/12/12 07:47:10;;;;;;;5.82;1.98;;;25.60;47.80;;;;;;5009349;28;20763;-39
2022/12/12 07:49:41;;;;;;;2.85;1.58;;;25.60;47.70;;;;;;5010563;28;20193;-42
2022/12/12 07:52:11;;;;;;;3.00;2.00;;;25.50;47.70;;;;;;5010500;28;20224;-43
2022/12/12 07:54:42;;;;;;;4.15;1.95;;;25.50;47.70;;;;;;5010609;28;20207;-39
2022/12/12 07:57:13;;;;;;;2.25;1.55;;;25.50;47.80;;;;;;5010853;28;20625;-42
2022/12/12 07:59:46;;;;;;;2.85;1.70;;;25.50;47.80;;;;;;5010031;28;20208;-42
2022/12/12 08:02:17;;;;;;;2.70;1.58;;;25.40;47.70;;;;;;5011119;28;20227;-43
2022/12/12 08:04:48;;;;;;;3.50;1.73;;;25.40;47.80;;;;;;5014221;28;20335;-39
2022/12/12 08:07:19;;;;;;;2.25;1.58;;;25.40;47.90;;;;;;5014463;28;20201;-39
2022/12/12 08:09:49;;;;;;;3.00;1.55;;;25.30;47.80;;;;;;5014593;28;20211;-44
2022/12/12 08:12:20;;;;;;;3.38;1.55;;;25.30;47.90;;;;;;5014059;28;20581;-38
2022/12/12 08:14:53;;;;;;;3.17;1.80;;;25.30;47.90;;;;;;5014228;28;20672;-39
2022/12/12 08:17:23;;;;;;;2.42;1.50;;;25.30;48.50;;;;;;5013912;28;20193;-46
2022/12/12 08:19:54;;;;;;;2.65;1.60;;;25.30;47.90;;;;;;5013907;28;20244;-43
2022/12/12 08:22:25;;;;;;;3.70;1.95;;;25.20;47.90;;;;;;5013849;28;20203;-39
2022/12/12 08:24:56;;;;;;;3.50;1.65;;;25.20;47.90;;;;;;5014114;28;20287;-41
2022/12/12 08:27:26;;;;;;;2.35;1.52;;;25.20;47.90;;;;;;5013985;28;20205;-44
2022/12/12 08:29:59;;;;;;;2.20;1.65;;;25.20;48.00;;;;;;5014047;28;20569;-41
2022/12/12 08:32:30;;;;;;;2.85;1.40;;;25.10;48.00;;;;;;5014151;28;20220;-42
2022/12/12 08:35:00;;;;;;;3.15;1.70;;;25.10;48.00;;;;;;5013827;28;20203;-43
2022/12/12 08:37:31;;;;;;;3.05;1.67;;;25.10;48.00;;;;;;5013679;28;20197;-41
2022/12/12 08:40:02;;;;;;;3.88;1.88;;;25.10;48.00;;;;;;5013891;28;20201;-49
2022/12/12 08:42:33;;;;;;;2.53;1.80;;;25.00;48.00;;;;;;5013442;28;20215;-48
2022/12/12 08:45:06;;;;;;;2.38;1.63;;;25.00;48.00;;;;;;5013449;28;20775;-45
2022/12/12 08:47:36;;;;;;;2.63;1.80;;;25.00;48.10;;;;;;5013489;28;20556;-46
2022/12/12 08:50:08;;;;;;;2.80;1.58;;;25.00;48.10;;;;;;5013682;28;20197;-42
2022/12/12 08:52:39;;;;;;;5.93;1.90;;;24.90;48.10;;;;;;5013494;28;20684;-41
2022/12/12 08:55:10;;;;;;;6.00;2.10;;;24.90;48.40;;;;;;5012743;28;20228;-45
2022/12/12 08:57:41;;;;;;;6.85;2.40;;;24.90;48.60;;;;;;5013203;28;20201;-46
2022/12/12 09:00:15;;;;;;;4.95;2.28;;;24.80;48.80;;;;;;5013472;28;20208;-41
2022/12/12 09:02:47;;;;;;;6.32;2.17;;;24.80;48.90;;;;;;5013425;28;20219;-39
2022/12/12 09:05:17;;;;;;;4.88;2.35;;;24.80;48.90;;;;;;5013382;28;20220;-42
2022/12/12 09:07:48;;;;;;;6.25;2.28;;;24.70;48.90;;;;;;5013153;28;20253;-43
2022/12/12 09:10:19;;;;;;;5.63;2.03;;;24.70;49.10;;;;;;5013959;28;20220;-40
2022/12/12 09:12:50;;;;;;;5.10;2.10;;;24.70;49.10;;;;;;5015546;28;20219;-40
2022/12/12 09:15:23;;;;;;;4.35;2.22;;;24.70;49.20;;;;;;5012585;28;20696;-44
2022/12/12 09:17:53;;;;;;;4.38;1.90;;;24.70;49.20;;;;;;5012838;28;20201;-38
2022/12/12 09:20:24;;;;;;;3.80;2.13;;;24.60;49.20;;;;;;5012551;28;20209;-42
2022/12/12 09:22:55;;;;;;;4.55;1.80;;;24.60;49.10;;;;;;5012641;28;20203;-37
2022/12/12 09:25:26;;;;;;;3.45;1.85;;;24.60;49.10;;;;;;5007854;28;20573;-38
2022/12/12 09:27:57;;;;;;;4.15;2.00;;;24.60;49.10;;;;;;5005032;28;20278;-40
2022/12/12 09:30:29;;;;;;;3.67;1.88;;;24.50;49.10;;;;;;5012980;28;20667;-38
2022/12/12 09:33:00;;;;;;;3.75;1.80;;;24.50;49.10;;;;;;5032005;28;20227;-38
2022/12/12 09:35:31;;;;;;;4.15;1.85;;;24.50;49.10;;;;;;5021992;28;20212;-38
2022/12/12 09:38:01;;;;;;;3.80;2.03;;;24.50;49.10;;;;;;5010247;28;20208;-39
2022/12/12 09:40:37;;;;;;;3.88;1.80;;;24.50;49.10;;;;;;5001826;28;20193;-38
2022/12/12 09:43:08;;;;;;;2.90;1.67;;;24.50;49.10;;;;;;5007541;28;20193;-41
2022/12/12 09:45:41;;;;;;;7.93;2.20;;;24.50;49.00;;;;;;5002043;28;20555;-40
2022/12/12 09:48:16;;;;;;;5.07;1.90;;;24.40;49.00;;;;;;5011214;28;20208;-38
2022/12/12 09:50:49;;;;;;;4.03;1.67;;;24.40;49.00;;;;;;5011205;28;20675;-38
2022/12/12 09:53:23;;;;;;;4.63;1.90;;;24.40;49.00;;;;;;5011105;28;20917;-38
2022/12/12 09:56:01;;;;;;;2.60;1.70;;;24.30;48.90;;;;;;5011367;28;20216;-38
2022/12/12 09:58:39;;;;;;;3.78;1.88;;;24.30;48.90;;;;;;5011429;28;20286;-38
2022/12/12 10:01:19;;;;;;;2.97;1.60;;;24.30;48.90;;;;;;5011917;28;20567;-38
2022/12/12 10:04:01;;;;;;;1.77;1.50;;;24.30;49.00;;;;;;5011213;28;20196;-38
2022/12/12 10:06:36;;;;;;;2.67;1.80;;;24.30;49.10;;;;;;5010500;28;20723;-38
2022/12/12 10:09:21;;;;;;;4.10;1.75;;;24.20;49.00;;;;;;5010895;28;20227;-39
2022/12/12 10:11:53;;;;;;;4.22;1.70;;;24.20;49.00;;;;;;5011143;28;20562;-38
2022/12/12 10:14:30;;;;;;;3.05;1.90;;;24.20;49.00;;;;;;5017123;28;20220;-42
2022/12/12 10:17:06;;;;;;;2.80;1.80;;;24.20;49.00;;;;;;5010223;28;20232;-38
2022/12/12 10:19:45;;;;;;;1.63;1.50;;;24.10;48.90;;;;;;5011127;28;20204;-38
2022/12/12 10:22:24;;;;;;;2.78;1.70;;;24.10;49.00;;;;;;4991379;28;20201;-39
2022/12/12 10:25:00;;;;;;;2.92;1.70;;;24.10;49.00;;;;;;4992948;28;20584;-38
2022/12/12 10:27:32;;;;;;;3.95;1.80;;;24.00;49.00;;;;;;5009823;28;20192;-38
2022/12/12 10:30:15;;;;;;;2.38;1.55;;;24.00;49.00;;;;;;5011556;28;20197;-38
2022/12/12 10:33:01;;;;;;;2.90;1.92;;;24.00;49.00;;;;;;5011617;28;20201;-38
2022/12/12 10:35:39;;;;;;;4.00;2.08;;;23.90;48.90;;;;;;5010731;28;20216;-41
2022/12/12 10:38:23;;;;;;;4.35;1.80;;;23.90;49.00;;;;;;5011337;28;20201;-38
2022/12/12 10:41:00;;;;;;;4.38;1.75;;;23.90;49.10;;;;;;5010746;28;20189;-39
2022/12/12 10:43:36;;;;;;;3.70;2.00;;;23.80;49.00;;;;;;5010883;28;20200;-38
2022/12/12 10:46:20;;;;;;;2.95;1.90;;;23.80;49.10;;;;;;5010229;28;20239;-42
2022/12/12 10:48:53;;;;;;;1.73;1.52;;;23.80;49.10;;;;;;5010903;28;20243;-41
2022/12/12 10:51:27;;;;;;;2.38;1.52;;;23.80;49.10;;;;;;5010719;28;20196;-40
2022/12/12 10:53:58;;;;;;;2.47;1.77;;;23.70;49.00;;;;;;5010558;28;20231;-39
2022/12/12 10:56:30;;;;;;;2.42;1.73;;;23.70;49.10;;;;;;5009843;28;20778;-40
2022/12/12 10:59:02;;;;;;;2.28;1.50;;;23.70;49.10;;;;;;5010740;28;20197;-38
2022/12/12 11:01:36;;;;;;;2.90;1.70;;;23.70;49.10;;;;;;5009628;28;20659;-39
2022/12/12 11:04:10;;;;;;;2.30;1.42;;;23.70;49.10;;;;;;5012273;28;20249;-38
2022/12/12 11:06:46;;;;;;;2.20;1.30;;;23.60;49.10;;;;;;5003890;28;20216;-39
2022/12/12 11:09:21;;;;;;;2.50;1.40;;;23.60;49.10;;;;;;5010319;28;20215;-41
2022/12/12 11:12:00;;;;;;;2.92;1.63;;;23.60;49.10;;;;;;5012984;28;20207;-38
2022/12/12 11:14:38;;;;;;;3.97;1.85;;;23.50;49.00;;;;;;5010201;28;20248;-38
2022/12/12 11:17:23;;;;;;;1.98;1.70;;;23.50;49.00;;;;;;5007987;28;20220;-39
2022/12/12 11:19:56;;;;;;;2.05;1.50;;;23.50;49.10;;;;;;5004369;28;20263;-39
2022/12/12 11:22:28;;;;;;;1.98;1.50;;;23.40;49.00;;;;;;5008857;28;20216;-44
2022/12/12 11:24:59;;;;;;;2.30;1.60;;;23.40;49.00;;;;;;5009874;28;20215;-38
2022/12/12 11:27:33;;;;;;;2.83;1.70;;;23.40;49.00;;;;;;5010520;28;20553;-38
2022/12/12 11:30:06;;;;;;;2.85;1.65;;;23.40;49.10;;;;;;5010485;28;20654;-39
2022/12/12 11:32:41;;;;;;;2.78;1.60;;;23.40;49.10;;;;;;4991083;28;20248;-38
2022/12/12 11:35:25;;;;;;;1.95;1.67;;;23.30;49.10;;;;;;4990684;28;20848;-39
2022/12/12 11:38:00;;;;;;;3.70;1.65;;;23.30;49.10;;;;;;5012438;28;20558;-39
2022/12/12 11:40:33;;;;;;;2.90;1.88;;;23.30;49.10;;;;;;5015336;28;20211;-38
2022/12/12 11:43:24;;;;;;;2.35;1.35;;;23.30;49.10;;;;;;5015225;28;20652;-39
2022/12/12 11:46:06;;;;;;;3.40;1.80;;;23.20;49.10;;;;;;5013951;28;20217;-39
2022/12/12 11:48:45;;;;;;;1.83;1.50;;;23.20;49.70;;;;;;5011130;28;20664;-39
2022/12/12 11:51:34;;;;;;;2.13;1.50;;;23.20;49.10;;;;;;5010474;28;20193;-40
2022/12/12 11:54:07;;;;;;;1.58;1.48;;;23.10;49.10;;;;;;5013032;28;20229;-39
2022/12/12 11:56:56;;;;;;;1.67;1.27;;;23.10;49.10;;;;;;5010816;28;20209;-41
2022/12/12 11:59:38;;;;;;;1.98;1.60;;;23.10;49.10;;;;;;5012071;28;20193;-39
2022/12/12 12:02:38;;;;;;;1.60;1.45;;;23.00;49.00;;;;;;5012439;28;20199;-39
2022/12/12 12:05:17;;;;;;;2.25;1.60;;;23.00;49.10;;;;;;5003224;28;20200;-40
2022/12/12 12:08:04;;;;;;;1.40;1.30;;;23.00;49.10;;;;;;5013348;28;20284;-41
2022/12/12 12:10:49;;;;;;;1.42;1.33;;;23.00;49.10;;;;;;5014025;28;20200;-39
2022/12/12 12:13:33;;;;;;;1.77;1.42;;;22.90;49.10;;;;;;5014268;28;20200;-38
2022/12/12 12:16:12;;;;;;;1.67;1.33;;;22.90;49.10;;;;;;5014174;28;20263;-40
2022/12/12 12:19:00;;;;;;;1.98;1.52;;;22.90;49.10;;;;;;5013891;28;20534;-38
2022/12/12 12:21:35;;;;;;;3.45;1.63;;;22.90;49.10;;;;;;5013330;28;20192;-38
2022/12/12 12:24:32;;;;;;;2.40;1.50;;;22.90;49.10;;;;;;5013627;28;20207;-42
2022/12/12 12:27:11;;;;;;;3.00;1.73;;;22.90;49.10;;;;;;5013860;28;20221;-40
2022/12/12 12:30:06;;;;;;;2.28;1.75;;;22.80;49.10;;;;;;5013779;28;20207;-40
2022/12/12 12:32:49;;;;;;;1.80;1.40;;;22.80;49.10;;;;;;5013756;28;20209;-42
2022/12/12 12:35:30;;;;;;;2.67;1.58;;;22.80;49.10;;;;;;5013895;28;20684;-42
2022/12/12 12:38:15;;;;;;;1.80;1.58;;;22.70;49.00;;;;;;5013829;28;20658;-38
2022/12/12 12:41:04;;;;;;;2.45;1.40;;;22.70;49.10;;;;;;5014009;28;20200;-41
2022/12/12 12:43:59;;;;;;;2.00;1.40;;;22.70;49.10;;;;;;5014105;28;20223;-40
2022/12/12 12:46:43;;;;;;;1.52;1.40;;;22.60;49.10;;;;;;5013836;28;20260;-41
2022/12/12 12:49:21;;;;;;;1.65;1.40;;;22.60;49.10;;;;;;5012395;28;20255;-39
2022/12/12 12:51:56;;;;;;;2.08;1.48;;;22.60;49.10;;;;;;5012908;28;20200;-41
2022/12/12 12:54:30;;;;;;;1.83;1.40;;;22.60;49.00;;;;;;5013080;28;20228;-38
2022/12/12 12:57:07;;;;;;;2.55;1.80;;;22.60;49.00;;;;;;5013088;28;20243;-38
2022/12/12 12:59:41;;;;;;;2.15;1.45;;;22.60;49.10;;;;;;5013307;28;20215;-39
2022/12/12 13:02:22;;;;;;;1.55;1.33;;;22.50;49.10;;;;;;5016080;28;20189;-40
2022/12/12 13:05:02;;;;;;;1.35;1.20;;;22.50;49.10;;;;;;5012956;28;20203;-41
2022/12/12 13:07:40;;;;;;;3.92;1.40;;;22.50;49.10;;;;;;5012529;28;20258;-38
2022/12/12 13:10:21;;;;;;;1.55;1.30;;;22.50;49.10;;;;;;5015733;28;20193;-40
2022/12/12 13:12:59;;;;;;;2.03;1.50;;;22.50;49.20;;;;;;5013632;28;20216;-39
2022/12/12 13:15:33;;;;;;;2.13;1.40;;;22.40;49.10;;;;;;5013207;28;20228;-39
2022/12/12 13:18:05;;;;;;;2.15;1.40;;;22.40;49.10;;;;;;5013462;28;20197;-40
2022/12/12 13:20:40;;;;;;;2.35;1.52;;;22.40;49.20;;;;;;5013239;28;20288;-40
2022/12/12 13:23:45;;;;;;;1.95;1.42;;;22.30;49.20;;;;;;5012978;28;20197;-38
2022/12/12 13:26:22;;;;;;;2.97;1.60;;;22.30;49.20;;;;;;5012903;28;20220;-40
2022/12/12 13:29:02;;;;;;;1.40;1.30;;;22.30;49.20;;;;;;5012804;28;20201;-44
2022/12/12 13:31:56;;;;;;;1.63;1.38;;;22.30;49.10;;;;;;5012229;28;20196;-39
2022/12/12 13:34:28;;;;;;;1.52;1.38;;;22.30;49.10;;;;;;5012895;28;20327;-41
2022/12/12 13:37:00;;;;;;;1.50;1.30;;;22.30;49.10;;;;;;5012505;28;20225;-38
2022/12/12 13:39:33;;;;;;;1.90;1.50;;;22.30;49.20;;;;;;5012687;28;20652;-39
2022/12/12 13:42:05;;;;;;;1.35;1.23;;;22.30;49.20;;;;;;5012772;28;20200;-38
2022/12/12 13:44:43;;;;;;;1.50;1.33;;;22.20;49.20;;;;;;5012758;28;20193;-40
2022/12/12 13:47:42;;;;;;;1.63;1.52;;;22.20;49.20;;;;;;5012748;28;20247;-41